Hyakuri Air Base, Japan

7:05 PM JST on September 15, 2014 (GMT +0900)
Hyakuri Aero | Change Station
CLOSE
Current Station
Airport
Location: Hyakuri AB,
Elevation: 115 ft
Nearby Weather Stations

Elev 115 ft 36.18 °N, 140.41 °E | Updated 5 minutes ago

Scattered Clouds
Scattered Clouds
68 °F
Feels Like 68 °F
N
2
Wind Variable Wind from Variable

Today
High -- | Low -- °F
--% Chance of Precip.
Yesterday
High -- | Low -- °F
Precip. -- in
5:20 AM 5:46 PM
Waning Gibbous, 57% visible
Pressure 29.89 in
Visibility 6.2 miles
Clouds Few 2000 ft
Scattered Clouds 16000 ft
Dew Point 63 °F
Humidity 83%
Rainfall 0.00 in
Snow Depth Not available.
UV 0 out of 12
Pollen Not available.
Air Quality Not available.
Flu Activity Not available.
METAR RJAH 151000Z VRB02KT 9999 FEW020 SCT160 BKN/// 20/17 Q1012

More Conditions Fewer Conditions

Pressure 29.89 in
Visibility 6.2 miles
Clouds Few 2000 ft
Scattered Clouds 16000 ft
Dew Point 63 °F
Humidity 83%
Rainfall 0.00 in
Snow Depth Not available.
UV 0 out of 12
Pollen Not available.
Air Quality Not available.
Flu Activity Not available.
METAR RJAH 151000Z VRB02KT 9999 FEW020 SCT160 BKN/// 20/17 Q1012

More Conditions Fewer Conditions

10-Day Weather Forecast

Almanac

Astronomy

Sep. 15, 2014 Rise Set
Actual Time 5:20 AM JST 5:46 PM JST
Civil Twilight 4:54 AM JST 6:12 PM JST
Nautical Twilight 4:24 AM JST 6:42 PM JST
Astronomical Twilight 3:53 AM JST 7:13 PM JST
Moon 10:07 PM JST 11:36 AM JST
Length of Visible Light 13h 17m
Length of Day
12h 26m
Tomorrow will be 2m 15s shorter.
Waning Gibbous, 57% of the Moon is Illuminated
Today
Waning Gibbous
Sep 15
Last Quarter
Sep 24
New
Oct 1
First Quarter
Oct 8
Full

Yesterday's Extremes

Country Highs Country Lows

Community

WunderPhotos

Upload Photos

1,753,428 photos uploaded!

WunderBlogs® & News

Nearby

Snow Depth

Not available.

Earthquake Activity

City Distance Mag. Time & Date
No recent earthquake activity has been reported nearby.
Minimum magnitude displayed is 2.5.

Coastal Water Temperatures

Place Temperature
No Stations Reporting

Nearby Weather Stations